Time;durP1;ratioP1;P1;durP2;ratioP2;P2;SDS_P1;SDS_P2;PMS_P1;PMS_P2;Temp;Humidity;BMP_temperature;BMP_pressure;BME280_temperature;BME280_humidity;BME280_pressure;Samples;Min_cycle;Max_cycle;Signal;HPM_P1;HPM_P2
2022/09/03 00:02:42;;;;;;;;;11.00;10.00;;;;;21.99;63.77;100724.28;5094136;27;49953;-73
2022/09/03 00:05:14;;;;;;;;;8.00;8.00;;;;;22.00;63.63;100723.38;5092237;27;51433;-72
2022/09/03 00:07:56;;;;;;;;;9.50;8.50;;;;;21.99;63.75;100716.28;5093988;27;49584;-73
2022/09/03 00:10:30;;;;;;;;;10.50;10.25;;;;;21.81;63.49;100682.00;5074221;27;49679;-72
2022/09/03 00:13:00;;;;;;;;;9.25;9.25;;;;;21.85;63.81;100691.72;5072809;27;49806;-73
2022/09/03 00:15:26;;;;;;;;;9.75;8.75;;;;;21.74;63.88;100675.09;5074075;27;49653;-72
2022/09/03 00:18:01;;;;;;;;;7.25;6.00;;;;;21.90;64.05;100705.81;5074000;27;49593;-72
2022/09/03 00:20:43;;;;;;;;;9.25;9.25;;;;;21.77;63.74;100683.03;5073845;27;49882;-72
2022/09/03 00:23:15;;;;;;;;;8.75;8.75;;;;;21.51;63.98;100652.50;5074138;27;49819;-72
2022/09/03 00:25:56;;;;;;;;;10.00;10.00;;;;;21.96;64.04;100719.03;5072534;27;51190;-72
2022/09/03 00:28:40;;;;;;;;;10.25;8.50;;;;;21.86;63.72;100704.16;5088205;27;49652;-73
2022/09/03 00:31:17;;;;;;;;;9.00;9.00;;;;;21.95;64.07;100714.59;5093241;27;50008;-72
2022/09/03 00:33:46;;;;;;;;;9.50;8.00;;;;;21.92;64.31;100714.69;5093233;27;49582;-72
2022/09/03 00:36:21;;;;;;;;;10.25;9.00;;;;;21.94;64.32;100718.22;5093065;27;49855;-72
2022/09/03 00:38:46;;;;;;;;;8.75;8.75;;;;;21.86;64.82;100710.38;5079454;27;50062;-72
2022/09/03 00:41:39;;;;;;;;;11.25;11.25;;;;;21.90;64.70;100714.72;5073606;27;49705;-72
2022/09/03 00:44:37;;;;;;;;;8.50;8.50;;;;;21.79;64.97;100694.53;5089259;27;49703;-72
2022/09/03 00:47:14;;;;;;;;;10.50;9.00;;;;;21.90;64.90;100711.16;5092005;27;49830;-72
2022/09/03 00:49:59;;;;;;;;;15.00;10.00;;;;;21.89;65.05;100707.63;5073409;27;50033;-72
2022/09/03 00:52:44;;;;;;;;;9.25;9.25;;;;;21.88;65.09;100711.22;5073599;27;49949;-72
2022/09/03 00:55:24;;;;;;;;;9.25;9.25;;;;;21.68;65.23;100684.16;5073628;27;50368;-72
2022/09/03 00:58:11;;;;;;;;;8.75;8.75;;;;;21.86;65.31;100722.88;5086827;27;49751;-72
2022/09/03 01:00:41;;;;;;;;;8.50;8.50;;;;;21.75;65.36;100703.56;5091703;27;49796;-72
2022/09/03 01:03:25;;;;;;;;;8.00;7.75;;;;;21.73;65.48;100708.09;5093144;27;49850;-72
2022/09/03 01:06:07;;;;;;;;;9.50;8.00;;;;;21.77;65.21;100713.28;5092671;27;49880;-72
2022/09/03 01:08:50;;;;;;;;;7.00;7.00;;;;;21.80;65.80;100720.34;5085135;27;50894;-72
2022/09/03 01:11:27;;;;;;;;;9.50;8.75;;;;;21.79;65.76;100716.81;5073226;27;49798;-72
2022/09/03 01:14:08;;;;;;;;;8.00;8.00;;;;;21.60;65.85;100688.81;5073166;27;50135;-72
2022/09/03 01:16:55;;;;;;;;;8.75;6.75;;;;;21.77;65.90;100713.28;5073523;27;49901;-72
2022/09/03 01:19:42;;;;;;;;;7.00;7.00;;;;;21.78;65.98;100722.19;5088043;27;51025;-72
2022/09/03 01:22:10;;;;;;;;;10.50;8.75;;;;;21.75;65.89;100709.78;5092354;27;49652;-72
2022/09/03 01:24:58;;;;;;;;;8.00;8.00;;;;;21.77;65.96;100720.44;5092676;27;49971;-72
2022/09/03 01:27:51;;;;;;;;;7.50;6.50;;;;;21.75;66.00;100715.13;5092274;27;50013;-73
2022/09/03 01:30:19;;;;;;;;;7.25;7.25;;;;;21.78;66.23;100719.50;5092517;27;50925;-72
2022/09/03 01:32:52;;;;;;;;;7.75;7.75;;;;;21.61;66.47;100702.13;5092372;27;50149;-73
2022/09/03 01:35:27;;;;;;;;;7.25;7.25;;;;;21.74;66.25;100721.41;5092077;27;49628;-72
2022/09/03 01:37:52;;;;;;;;;8.75;8.50;;;;;21.75;66.42;100720.47;5092485;27;49826;-72
2022/09/03 01:40:42;;;;;;;;;8.75;7.75;;;;;21.77;66.42;100717.75;5092140;27;49884;-72
2022/09/03 01:43:50;;;;;;;;;7.50;6.00;;;;;21.75;66.46;100720.47;5092190;27;50064;-73
2022/09/03 01:46:25;;;;;;;;;6.50;6.50;;;;;21.75;66.34;100715.13;5092051;27;49821;-73
2022/09/03 01:49:04;;;;;;;;;5.75;5.00;;;;;21.75;66.25;100716.94;5091795;27;49809;-73
2022/09/03 01:51:31;;;;;;;;;5.25;5.25;;;;;21.67;66.62;100704.63;5076110;27;49689;-72
2022/09/03 01:54:12;;;;;;;;;7.00;7.00;;;;;21.72;66.56;100717.91;5072512;27;49870;-72
2022/09/03 01:57:02;;;;;;;;;5.25;5.25;;;;;21.71;66.59;100705.44;5072804;27;49799;-72
2022/09/03 01:59:51;;;;;;;;;6.50;6.50;;;;;21.71;66.54;100705.44;5079398;27;49904;-72
2022/09/03 02:02:23;;;;;;;;;7.00;7.00;;;;;21.69;66.73;100705.47;5088814;27;51194;-72
2022/09/03 02:04:54;;;;;;;;;7.00;7.00;;;;;21.69;66.49;100696.59;5091507;27;49841;-72
2022/09/03 02:07:22;;;;;;;;;5.50;5.50;;;;;21.66;66.96;100702.88;5092020;27;49842;-72
2022/09/03 02:09:48;;;;;;;;;8.50;7.75;;;;;21.40;66.90;100660.81;5092214;27;49738;-72
2022/09/03 02:12:17;;;;;;;;;7.00;7.00;;;;;21.49;67.18;100680.19;5091436;27;50394;-72
2022/09/03 02:14:43;;;;;;;;;8.00;6.75;;;;;21.44;67.04;100674.97;5091963;27;50032;-72
2022/09/03 02:17:10;;;;;;;;;9.25;9.25;;;;;21.60;67.11;100707.50;5091665;27;49806;-72
2022/09/03 02:19:37;;;;;;;;;4.00;4.00;;;;;21.61;66.90;100715.47;5073937;27;49715;-72
2022/09/03 02:22:04;;;;;;;;;8.25;7.25;;;;;21.57;67.58;100704.91;5074658;27;50063;-72
2022/09/03 02:24:29;;;;;;;;;9.75;9.75;;;;;21.52;67.32;100689.03;5071913;27;49869;-72
2022/09/03 02:26:55;;;;;;;;;9.00;9.00;;;;;21.42;67.47;100680.38;5071354;27;54159;-72
2022/09/03 02:29:21;;;;;;;;;8.25;6.75;;;;;21.54;67.31;100700.53;5071069;27;49711;-72
2022/09/03 02:31:47;;;;;;;;;9.00;8.00;;;;;21.35;67.33;100672.53;5071978;27;50937;-72
2022/09/03 02:34:12;;;;;;;;;6.00;5.25;;;;;21.45;67.29;100694.56;5071946;27;49687;-72
2022/09/03 02:36:41;;;;;;;;;7.50;6.00;;;;;21.28;67.29;100663.78;5071476;27;49972;-72
2022/09/03 02:39:07;;;;;;;;;7.50;6.50;;;;;21.41;67.65;100691.06;5072024;27;49995;-72
2022/09/03 02:41:35;;;;;;;;;6.75;6.75;;;;;21.44;67.85;100709.69;5071581;27;49805;-72
2022/09/03 02:44:10;;;;;;;;;6.75;6.75;;;;;21.44;67.75;100715.03;5071226;27;61120;-72
2022/09/03 02:46:47;;;;;;;;;6.50;6.50;;;;;21.49;68.03;100722.91;5071845;27;49901;-72
2022/09/03 02:49:12;;;;;;;;;9.50;7.00;;;;;21.40;67.86;100710.66;5071829;27;49712;-72
2022/09/03 02:51:40;;;;;;;;;6.00;6.00;;;;;21.41;68.06;100721.31;5071362;27;50035;-72
2022/09/03 02:54:07;;;;;;;;;7.50;6.25;;;;;21.30;68.23;100693.13;5071619;27;49955;-73
2022/09/03 02:56:33;;;;;;;;;7.50;7.00;;;;;21.34;68.08;100702.84;5071621;27;49619;-72
2022/09/03 02:58:59;;;;;;;;;8.75;7.25;;;;;21.38;68.00;100705.38;5071592;27;50093;-72
2022/09/03 03:01:25;;;;;;;;;9.25;8.00;;;;;21.40;67.98;100718.69;5070513;27;51802;-72
2022/09/03 03:03:51;;;;;;;;;6.75;5.75;;;;;21.42;68.27;100720.44;5071458;27;49765;-72
2022/09/03 03:06:19;;;;;;;;;7.50;7.50;;;;;21.19;67.87;100673.78;5071271;27;49846;-72
2022/09/03 03:08:45;;;;;;;;;8.00;6.25;;;;;21.29;68.36;100696.72;5070406;27;50090;-72
2022/09/03 03:11:12;;;;;;;;;11.00;9.00;;;;;21.24;68.44;100693.25;5071283;27;49979;-72
2022/09/03 03:13:37;;;;;;;;;6.75;6.50;;;;;21.22;68.81;100687.06;5071285;27;49830;-73
2022/09/03 03:16:07;;;;;;;;;8.25;8.25;;;;;21.28;68.71;100700.28;5071305;27;49704;-73
2022/09/03 03:18:33;;;;;;;;;6.00;5.75;;;;;21.26;69.03;100708.34;5071493;27;49721;-73
2022/09/03 03:21:07;;;;;;;;;7.00;7.00;;;;;21.14;68.91;100681.91;5070829;27;51696;-73
2022/09/03 03:23:34;;;;;;;;;6.50;5.50;;;;;21.32;68.98;100717.97;5071167;27;49855;-73
2022/09/03 03:26:01;;;;;;;;;8.25;7.00;;;;;21.19;69.07;100696.03;5086566;27;49795;-72
2022/09/03 03:28:26;;;;;;;;;5.50;5.50;;;;;21.21;68.96;100699.53;5071157;27;49667;-72
2022/09/03 03:30:52;;;;;;;;;7.00;7.00;;;;;21.17;68.95;100694.31;5071106;27;49844;-72
2022/09/03 03:33:17;;;;;;;;;6.00;6.00;;;;;21.22;68.93;100701.28;5069257;27;59771;-72
2022/09/03 03:35:42;;;;;;;;;7.75;7.75;;;;;21.18;68.95;100696.06;5070276;27;55250;-73
2022/09/03 03:38:08;;;;;;;;;7.25;7.25;;;;;21.03;68.96;100668.81;5071370;27;49930;-72
2022/09/03 03:40:33;;;;;;;;;12.50;7.50;;;;;21.22;69.10;100703.94;5070898;27;51905;-72
2022/09/03 03:42:59;;;;;;;;;8.25;7.00;;;;;21.05;69.19;100677.69;5070950;27;49732;-72
2022/09/03 03:45:24;;;;;;;;;9.75;7.75;;;;;21.19;69.46;100703.16;5071142;27;49967;-72
2022/09/03 03:47:49;;;;;;;;;9.75;7.00;;;;;20.97;69.65;100663.63;5071121;27;49647;-72
2022/09/03 03:50:16;;;;;;;;;7.75;6.25;;;;;21.14;69.56;100698.81;5070341;27;49957;-73
2022/09/03 03:52:41;;;;;;;;;8.25;7.25;;;;;21.15;69.62;100695.22;5070838;27;49696;-73
2022/09/03 03:55:07;;;;;;;;;10.00;10.00;;;;;20.74;69.76;100626.78;5069499;27;49601;-72
2022/09/03 03:57:32;;;;;;;;;7.75;7.75;;;;;21.12;69.91;100694.41;5071180;27;49799;-72
2022/09/03 03:59:58;;;;;;;;;8.00;7.50;;;;;21.09;70.05;100691.81;5070675;27;50825;-72
2022/09/03 04:02:23;;;;;;;;;6.00;6.00;;;;;21.10;69.95;100693.56;5070203;27;56967;-72
2022/09/03 04:04:48;;;;;;;;;11.25;7.75;;;;;20.85;69.93;100648.78;5070598;27;50301;-72
2022/09/03 04:07:14;;;;;;;;;6.00;6.00;;;;;21.02;70.08;100682.19;5070987;27;49878;-73
2022/09/03 04:09:39;;;;;;;;;7.50;7.50;;;;;21.08;70.24;100698.06;5070485;27;49785;-73
2022/09/03 04:12:07;;;;;;;;;7.50;7.50;;;;;21.03;70.10;100683.94;5070868;27;53541;-72
2022/09/03 04:14:34;;;;;;;;;6.75;5.50;;;;;21.10;70.17;100698.91;5074288;27;49852;-72
2022/09/03 04:17:00;;;;;;;;;9.00;8.50;;;;;21.13;70.53;100704.16;5074180;27;49817;-72
2022/09/03 04:19:27;;;;;;;;;8.25;7.75;;;;;21.01;70.84;100699.13;5072349;27;52815;-72
2022/09/03 04:21:52;;;;;;;;;7.25;6.25;;;;;20.96;70.72;100695.69;5073817;27;49705;-72
2022/09/03 04:24:18;;;;;;;;;8.25;8.25;;;;;21.06;70.89;100722.13;5073549;27;55974;-72
2022/09/03 04:26:43;;;;;;;;;11.25;9.50;;;;;21.07;70.58;100717.66;5073917;27;49595;-72
2022/09/03 04:29:09;;;;;;;;;8.00;8.00;;;;;20.97;70.78;100702.78;5073701;27;54561;-72
2022/09/03 04:31:36;;;;;;;;;8.00;8.00;;;;;21.02;71.00;100720.44;5072602;27;49743;-72
2022/09/03 04:34:01;;;;;;;;;12.00;10.25;;;;;20.87;71.01;100696.78;5073896;27;49853;-72
2022/09/03 04:36:29;;;;;;;;;11.50;8.25;;;;;20.88;71.35;100701.19;5073618;27;49919;-72
2022/09/03 04:38:58;;;;;;;;;7.00;7.00;;;;;20.96;71.28;100709.91;5073673;27;50191;-72
2022/09/03 04:41:25;;;;;;;;;10.50;10.50;;;;;20.95;71.34;100718.84;5073429;27;49755;-72
2022/09/03 04:43:53;;;;;;;;;9.00;7.75;;;;;20.95;71.31;100709.94;5073697;27;49795;-72
2022/09/03 04:46:20;;;;;;;;;10.75;9.00;;;;;20.88;71.33;100703.00;5073531;27;49811;-72
2022/09/03 04:48:50;;;;;;;;;9.75;9.75;;;;;20.89;71.44;100705.63;5073589;27;50451;-72
2022/09/03 04:51:19;;;;;;;;;10.00;9.00;;;;;20.95;71.51;100720.63;5073390;27;49922;-73
2022/09/03 04:53:47;;;;;;;;;9.50;9.50;;;;;20.79;71.60;100690.72;5073652;27;49790;-72
2022/09/03 04:56:15;;;;;;;;;9.50;9.25;;;;;20.85;71.56;100712.81;5075646;27;49840;-72
2022/09/03 04:58:42;;;;;;;;;10.75;10.50;;;;;20.93;71.81;100719.75;5092810;27;49709;-72
2022/09/03 05:01:15;;;;;;;;;8.50;8.50;;;;;20.76;71.66;100694.34;5091460;27;49752;-72
2022/09/03 05:03:41;;;;;;;;;16.00;11.25;;;;;20.82;71.66;100704.88;5093232;27;49840;-72
2022/09/03 05:06:07;;;;;;;;;7.75;7.50;;;;;20.85;71.66;100706.63;5093034;27;49820;-72
2022/09/03 05:08:35;;;;;;;;;10.00;8.25;;;;;20.90;71.66;100725.16;5092786;27;50764;-72
2022/09/03 05:11:05;;;;;;;;;9.50;9.50;;;;;20.74;71.79;100685.47;5091544;27;49856;-72
2022/09/03 05:13:32;;;;;;;;;10.25;10.25;;;;;20.91;71.59;100727.81;5092586;27;49690;-72
2022/09/03 05:16:03;;;;;;;;;8.00;8.00;;;;;20.86;71.61;100711.03;5093001;27;49808;-71
2022/09/03 05:18:28;;;;;;;;;9.50;9.50;;;;;20.87;71.69;100712.78;5092689;27;49686;-71
2022/09/03 05:21:06;;;;;;;;;8.25;8.25;;;;;20.92;71.71;100720.66;5092536;27;50030;-72
2022/09/03 05:23:36;;;;;;;;;7.50;7.50;;;;;20.89;71.56;100720.75;5090837;27;49952;-71
2022/09/03 05:26:05;;;;;;;;;9.75;9.75;;;;;20.92;71.56;100718.88;5092524;27;49705;-71
2022/09/03 05:28:30;;;;;;;;;12.00;10.25;;;;;20.74;71.82;100689.94;5092242;27;49818;-72
2022/09/03 05:31:07;;;;;;;;;9.75;9.25;;;;;20.85;71.75;100714.63;5092595;27;50106;-72
2022/09/03 05:33:37;;;;;;;;;8.50;7.50;;;;;20.85;71.58;100723.50;5092654;27;49755;-72
2022/09/03 05:36:05;;;;;;;;;10.00;10.00;;;;;20.88;71.66;100722.53;5092101;27;49813;-72
2022/09/03 05:38:31;;;;;;;;;9.00;9.00;;;;;20.92;71.59;100729.56;5092213;27;49794;-71
2022/09/03 05:41:01;;;;;;;;;8.25;8.00;;;;;20.72;71.48;100694.44;5092090;27;49847;-72
2022/09/03 05:43:27;;;;;;;;;10.00;9.75;;;;;20.84;71.69;100721.75;5092425;27;49826;-72
2022/09/03 05:46:01;;;;;;;;;10.00;9.00;;;;;20.86;71.42;100721.72;5092422;27;49741;-71
2022/09/03 05:48:27;;;;;;;;;10.50;10.50;;;;;20.94;71.35;100742.84;5107952;27;51858;-72
2022/09/03 05:51:08;;;;;;;;;7.25;7.25;;;;;20.93;71.09;100728.63;5092128;27;50287;-72
2022/09/03 05:53:35;;;;;;;;;8.00;8.00;;;;;20.93;71.35;100723.31;5092172;27;49940;-72
2022/09/03 05:56:07;;;;;;;;;9.25;6.50;;;;;21.05;71.44;100736.41;5092326;27;50221;-71
2022/09/03 05:58:33;;;;;;;;;10.00;9.50;;;;;20.99;71.11;100727.63;5091948;27;50045;-72
2022/09/03 06:01:08;;;;;;;;;8.25;7.75;;;;;21.01;70.73;100732.03;5107794;27;50062;-71
2022/09/03 06:03:34;;;;;;;;;10.00;10.00;;;;;21.00;71.15;100730.25;5092030;27;49565;-71
2022/09/03 06:05:59;;;;;;;;;10.25;9.00;;;;;20.93;70.84;100717.97;5092096;27;49801;-71
2022/09/03 06:08:25;;;;;;;;;8.75;7.50;;;;;21.10;70.54;100742.50;5091932;27;50466;-72
2022/09/03 06:10:57;;;;;;;;;10.50;9.75;;;;;21.15;70.58;100748.63;5091778;27;49758;-72
2022/09/03 06:13:22;;;;;;;;;11.75;10.50;;;;;21.21;70.56;100749.38;5091904;27;49967;-72
2022/09/03 06:15:48;;;;;;;;;13.00;10.00;;;;;21.25;70.25;100751.06;5091725;27;49647;-72
2022/09/03 06:18:13;;;;;;;;;8.50;8.50;;;;;21.14;70.25;100738.84;5091260;27;64760;-72
2022/09/03 06:20:38;;;;;;;;;10.00;10.00;;;;;21.28;70.03;100759.03;5091518;27;49794;-71
2022/09/03 06:23:03;;;;;;;;;11.00;11.00;;;;;21.15;69.84;100723.72;5091868;27;49992;-72
2022/09/03 06:25:30;;;;;;;;;13.75;11.00;;;;;21.33;69.60;100752.69;5092024;27;50003;-71
2022/09/03 06:27:55;;;;;;;;;8.25;7.50;;;;;21.36;69.56;100757.94;5091552;27;49970;-71
2022/09/03 06:30:22;;;;;;;;;10.00;8.25;;;;;21.38;69.18;100749.91;5079689;27;50045;-71
2022/09/03 06:32:52;;;;;;;;;15.50;10.25;;;;;21.53;69.10;100775.38;5072081;27;49614;-72
2022/09/03 06:35:18;;;;;;;;;12.75;11.00;;;;;21.38;69.17;100745.44;5073773;27;49996;-71
2022/09/03 06:37:44;;;;;;;;;9.50;9.50;;;;;21.56;69.25;100773.50;5071797;27;49785;-72
2022/09/03 06:40:19;;;;;;;;;9.00;9.00;;;;;21.43;68.89;100756.03;5071929;27;49901;-73
2022/09/03 06:42:55;;;;;;;;;11.00;10.25;;;;;21.40;69.13;100756.94;5090093;27;50004;-72
2022/09/03 06:45:20;;;;;;;;;14.25;13.00;;;;;21.50;68.94;100768.28;5090461;27;49682;-72
2022/09/03 06:47:45;;;;;;;;;13.00;11.75;;;;;21.57;68.89;100779.72;5080180;27;50548;-72
2022/09/03 06:50:11;;;;;;;;;8.50;8.50;;;;;21.59;68.65;100770.75;5071184;27;49605;-72
2022/09/03 06:52:36;;;;;;;;;11.75;10.75;;;;;21.62;68.21;100761.78;5071843;27;50153;-71
2022/09/03 06:55:02;;;;;;;;;12.75;11.00;;;;;21.85;68.01;100793.28;5071364;27;56489;-71
2022/09/03 06:57:28;;;;;;;;;10.50;8.75;;;;;21.88;68.23;100774.47;5071456;27;49843;-71
2022/09/03 06:59:54;;;;;;;;;12.00;8.50;;;;;21.79;67.55;100753.34;5071335;27;50192;-72
2022/09/03 07:02:21;;;;;;;;;10.75;10.50;;;;;21.92;67.26;100762.81;5071637;27;49790;-71
2022/09/03 07:04:48;;;;;;;;;10.75;10.25;;;;;22.14;67.25;100787.22;5071423;27;49716;-71
2022/09/03 07:07:15;;;;;;;;;12.25;11.50;;;;;22.15;66.86;100787.16;5071237;27;50719;-71
2022/09/03 07:09:40;;;;;;;;;8.00;8.00;;;;;22.10;66.67;100772.16;5071233;27;49727;-71
2022/09/03 07:12:06;;;;;;;;;9.50;7.00;;;;;22.16;66.66;100780.03;5080933;27;49839;-72
2022/09/03 07:14:31;;;;;;;;;10.50;10.00;;;;;22.14;66.71;100773.84;5089185;27;49939;-72
2022/09/03 07:16:57;;;;;;;;;7.50;7.50;;;;;22.23;65.98;100768.25;5082381;27;49881;-71
2022/09/03 07:19:22;;;;;;;;;9.75;9.75;;;;;22.29;65.94;100784.09;5077486;27;57676;-71
2022/09/03 07:21:47;;;;;;;;;12.25;11.25;;;;;22.26;65.64;100781.53;5071634;27;51856;-72
2022/09/03 07:24:13;;;;;;;;;9.50;9.50;;;;;22.35;65.80;100775.06;5078217;27;50208;-72
2022/09/03 07:26:43;;;;;;;;;10.25;10.25;;;;;22.32;65.79;100772.47;5079601;27;50919;-72
2022/09/03 07:29:10;;;;;;;;;8.25;8.25;;;;;22.32;65.28;100772.47;5087232;27;49703;-71
2022/09/03 07:31:37;;;;;;;;;8.50;7.25;;;;;22.47;65.17;100796.97;5084016;27;49581;-72
2022/09/03 07:34:05;;;;;;;;;9.75;9.75;;;;;22.37;65.23;100781.22;5077049;27;50152;-72
2022/09/03 07:36:37;;;;;;;;;9.00;7.50;;;;;22.41;65.21;100793.63;5074642;27;51066;-72
2022/09/03 07:39:03;;;;;;;;;10.00;8.75;;;;;22.33;64.81;100784.94;5069767;27;49822;-72
2022/09/03 07:41:30;;;;;;;;;9.00;8.50;;;;;22.44;64.87;100802.44;5071050;27;49862;-72
2022/09/03 07:43:55;;;;;;;;;5.50;3.50;;;;;22.27;65.07;100783.28;5071275;27;49784;-72
2022/09/03 07:46:26;;;;;;;;;7.50;7.50;;;;;22.17;65.12;100777.31;5072296;27;49690;-72
2022/09/03 07:48:56;;;;;;;;;7.00;7.00;;;;;22.40;65.02;100802.56;5077716;27;50232;-72
2022/09/03 07:51:25;;;;;;;;;8.50;8.50;;;;;22.35;64.74;100804.47;5076748;27;49877;-71
2022/09/03 07:53:52;;;;;;;;;9.50;9.25;;;;;21.93;65.01;100729.81;5077662;27;49794;-70
2022/09/03 07:56:17;;;;;;;;;6.00;6.00;;;;;22.19;64.79;100778.13;5075371;27;49909;-71
2022/09/03 07:58:42;;;;;;;;;7.25;7.25;;;;;22.40;64.73;100791.88;5083467;27;49660;-72
2022/09/03 08:01:11;;;;;;;;;9.00;8.00;;;;;22.49;64.33;100808.53;5074345;27;50199;-72
2022/09/03 08:03:37;;;;;;;;;6.75;6.75;;;;;22.52;64.05;100805.78;5081385;27;49668;-72
2022/09/03 08:06:05;;;;;;;;;7.75;7.75;;;;;22.46;63.94;100792.56;5073349;27;49803;-72
2022/09/03 08:08:32;;;;;;;;;8.00;8.00;;;;;22.52;64.01;100804.91;5074026;27;49834;-72
2022/09/03 08:11:09;;;;;;;;;8.00;7.50;;;;;22.57;63.51;100805.63;5074160;27;49926;-72
2022/09/03 08:13:41;;;;;;;;;7.00;7.00;;;;;22.71;63.47;100832.03;5078113;27;49711;-73
2022/09/03 08:16:08;;;;;;;;;7.25;7.25;;;;;22.18;63.60;100738.94;5078558;27;50634;-73
2022/09/03 08:18:36;;;;;;;;;8.00;8.00;;;;;22.71;63.58;100822.19;5086150;27;49519;-72
2022/09/03 08:21:05;;;;;;;;;7.75;6.50;;;;;22.80;63.18;100829.97;5076435;27;49837;-72
2022/09/03 08:23:31;;;;;;;;;8.75;6.75;;;;;22.55;63.14;100797.66;5076790;27;50204;-73
2022/09/03 08:26:01;;;;;;;;;8.00;7.75;;;;;22.51;63.53;100787.97;5072929;27;49963;-73
2022/09/03 08:28:27;;;;;;;;;8.00;8.00;;;;;22.66;63.44;100823.22;5073784;27;49905;-72
2022/09/03 08:30:52;;;;;;;;;10.50;9.50;;;;;22.74;63.92;100838.16;5076766;27;49661;-74
2022/09/03 08:33:35;;;;;;;;;6.50;6.50;;;;;22.71;63.50;100827.53;5077641;27;49735;-75
2022/09/03 08:36:07;;;;;;;;;9.25;8.00;;;;;22.73;63.36;100828.38;5092419;27;50038;-68
2022/09/03 08:38:34;;;;;;;;;6.75;6.00;;;;;22.50;63.58;100763.94;5092293;27;50094;-69
2022/09/03 08:41:29;;;;;;;;;11.25;9.00;;;;;23.01;62.63;100844.56;5093245;27;49781;-73
2022/09/03 08:44:19;;;;;;;;;5.00;5.00;;;;;23.12;62.76;100846.91;5093634;27;50031;-69
2022/09/03 08:46:54;;;;;;;;;5.00;5.00;;;;;23.17;62.63;100853.03;5093266;27;49819;-69
2022/09/03 08:49:34;;;;;;;;;8.75;7.75;;;;;23.24;62.15;100846.53;5073458;27;49759;-72
2022/09/03 08:52:05;;;;;;;;;7.75;5.25;;;;;23.21;61.98;100837.72;5073746;27;50054;-69
2022/09/03 08:54:31;;;;;;;;;7.25;6.50;;;;;23.24;61.46;100833.16;5073872;27;49634;-69
2022/09/03 08:57:00;;;;;;;;;7.75;6.00;;;;;23.22;61.42;100823.41;5073227;27;50522;-71
2022/09/03 08:59:28;;;;;;;;;4.00;4.00;;;;;23.42;61.31;100854.03;5072349;27;49912;-72
2022/09/03 09:01:59;;;;;;;;;6.00;5.00;;;;;23.45;61.06;100854.84;5073370;27;49858;-69
2022/09/03 09:04:25;;;;;;;;;5.25;5.25;;;;;23.51;60.93;100854.66;5073493;27;49653;-67
2022/09/03 09:07:09;;;;;;;;;4.25;4.25;;;;;23.62;60.43;100855.22;5071755;27;52075;-69
2022/09/03 09:09:37;;;;;;;;;5.00;5.00;;;;;23.63;60.59;100833.75;5073499;27;49765;-69
2022/09/03 09:12:34;;;;;;;;;7.75;7.75;;;;;23.80;59.77;100853.78;5073259;27;49762;-68
2022/09/03 09:15:32;;;;;;;;;6.00;5.00;;;;;23.91;59.99;100855.16;5088410;27;49806;-68
2022/09/03 09:18:23;;;;;;;;;3.25;3.25;;;;;23.99;59.37;100836.16;5078853;27;50911;-69
2022/09/03 09:21:01;;;;;;;;;5.25;5.25;;;;;24.20;59.00;100848.84;5091207;27;49943;-69
2022/09/03 09:23:35;;;;;;;;;3.75;3.75;;;;;24.28;58.88;100837.84;5093977;27;49906;-68
2022/09/03 09:26:07;;;;;;;;;4.50;4.50;;;;;24.52;57.77;100850.47;5092881;27;49910;-69
2022/09/03 09:28:36;;;;;;;;;4.00;4.00;;;;;24.66;56.53;100849.94;5092237;27;50722;-69
2022/09/03 09:31:06;;;;;;;;;4.50;4.50;;;;;24.68;56.28;100813.19;5092294;27;49725;-70
2022/09/03 09:33:33;;;;;;;;;3.25;3.25;;;;;24.96;55.81;100845.25;5095789;27;49766;-70
2022/09/03 09:36:01;;;;;;;;;4.25;4.25;;;;;24.82;55.40;100820.75;5100871;27;49620;-73
2022/09/03 09:38:36;;;;;;;;;2.00;2.00;;;;;25.06;55.24;100852.06;5098073;27;50580;-72
2022/09/03 09:41:14;;;;;;;;;4.25;3.50;;;;;25.19;55.06;100854.28;5093145;27;49712;-70
2022/09/03 09:43:40;;;;;;;;;3.00;2.00;;;;;25.15;54.77;100844.59;5092347;27;49739;-70
2022/09/03 09:46:15;;;;;;;;;3.75;3.75;;;;;25.12;54.61;100826.81;5092400;27;49780;-71
2022/09/03 09:48:55;;;;;;;;;4.00;4.00;;;;;25.21;54.61;100834.50;5092433;27;49756;-71
2022/09/03 09:51:22;;;;;;;;;6.50;5.50;;;;;25.31;53.97;100851.16;5092329;27;49846;-74
2022/09/03 09:54:00;;;;;;;;;1.25;1.25;;;;;25.54;53.22;100850.25;5096165;27;49931;-72
2022/09/03 09:56:25;;;;;;;;;3.25;3.25;;;;;25.58;52.43;100835.75;5091505;27;49966;-71
2022/09/03 09:59:07;;;;;;;;;4.00;1.00;;;;;25.78;52.62;100851.13;5091868;27;50177;-72
2022/09/03 10:01:38;;;;;;;;;1.50;1.50;;;;;25.76;52.20;100837.69;5099531;27;49750;-72
2022/09/03 10:04:29;;;;;;;;;3.75;2.00;;;;;25.97;52.31;100854.81;5096322;27;49818;-71
2022/09/03 10:07:03;;;;;;;;;5.75;4.25;;;;;25.94;52.17;100852.22;5093369;27;49870;-70
2022/09/03 10:09:30;;;;;;;;;4.00;4.00;;;;;25.89;52.38;100832.72;5091583;27;50699;-71
2022/09/03 10:12:14;;;;;;;;;4.50;3.50;;;;;26.12;52.23;100854.13;5092074;27;50267;-70
2022/09/03 10:14:46;;;;;;;;;2.75;2.75;;;;;26.02;51.65;100842.03;5091909;27;49983;-72
2022/09/03 10:17:33;;;;;;;;;3.75;3.75;;;;;26.14;51.62;100859.44;5072492;27;49738;-72
2022/09/03 10:20:30;;;;;;;;;6.25;5.00;;;;;25.91;51.83;100858.59;5072044;27;50570;-71
2022/09/03 10:23:16;;;;;;;;;3.25;3.25;;;;;25.93;51.73;100863.91;5085241;27;49417;-71
2022/09/03 10:25:52;;;;;;;;;2.75;2.50;;;;;25.69;52.39;100855.88;5084279;27;49796;-72
2022/09/03 10:28:22;;;;;;;;;3.50;3.50;;;;;25.71;52.40;100854.97;5076730;27;49968;-71
2022/09/03 10:30:54;;;;;;;;;3.00;2.00;;;;;25.81;51.98;100877.88;5081012;27;50931;-72
2022/09/03 10:33:33;;;;;;;;;4.75;4.75;;;;;25.89;51.48;100878.44;5072636;27;49816;-71
2022/09/03 10:36:20;;;;;;;;;4.25;4.25;;;;;25.84;51.39;100856.22;5077155;27;49993;-71
2022/09/03 10:38:53;;;;;;;;;8.00;6.50;;;;;25.88;51.43;100853.38;5095308;27;49788;-71
2022/09/03 10:41:52;;;;;;;;;5.25;4.25;;;;;25.89;52.46;100873.06;5098032;27;49788;-72
2022/09/03 10:44:43;;;;;;;;;5.50;5.00;;;;;25.91;52.24;100880.13;5093430;27;50016;-70
2022/09/03 10:47:45;;;;;;;;;4.00;4.00;;;;;25.94;52.41;100874.59;5095797;27;49638;-71
2022/09/03 10:50:20;;;;;;;;;3.50;3.50;;;;;25.86;52.12;100879.41;5094715;27;49899;-71
2022/09/03 10:53:19;;;;;;;;;2.00;2.00;;;;;25.88;52.29;100872.19;5089275;27;50701;-71
2022/09/03 10:56:07;;;;;;;;;4.25;4.00;;;;;25.81;52.21;100888.63;5091058;27;49881;-71
2022/09/03 10:59:09;;;;;;;;;6.00;4.75;;;;;25.70;52.43;100891.75;5071663;27;49934;-71
2022/09/03 11:02:04;;;;;;;;;3.00;3.00;;;;;25.66;52.24;100887.38;5085409;27;50191;-70
2022/09/03 11:04:48;;;;;;;;;4.00;3.75;;;;;25.60;52.13;100893.88;5090918;27;50526;-70
2022/09/03 11:07:19;;;;;;;;;4.25;2.75;;;;;25.61;52.80;100882.19;5090978;27;49783;-71
2022/09/03 11:10:01;;;;;;;;;3.00;3.00;;;;;25.65;51.04;100902.63;5071602;27;49915;-71
2022/09/03 11:12:29;;;;;;;;;2.75;2.75;;;;;25.49;51.54;100879.13;5071600;27;49715;-70
2022/09/03 11:15:12;;;;;;;;;3.50;3.50;;;;;25.56;51.11;100869.84;5071181;27;50361;-71
2022/09/03 11:18:19;;;;;;;;;5.00;3.50;;;;;25.62;51.02;100886.63;5071355;27;49751;-71
2022/09/03 11:20:48;;;;;;;;;2.50;2.50;;;;;25.51;51.47;100886.19;5078837;27;50394;-71
2022/09/03 11:23:16;;;;;;;;;4.00;3.75;;;;;25.39;51.63;100867.84;5090004;27;49699;-71
2022/09/03 11:25:55;;;;;;;;;3.00;3.00;;;;;25.48;51.98;100882.72;5089593;27;50687;-71
2022/09/03 11:28:54;;;;;;;;;3.00;3.00;;;;;25.48;51.81;100891.69;5085695;27;49621;-71
2022/09/03 11:31:32;;;;;;;;;5.00;5.00;;;;;25.30;51.99;100873.59;5087134;27;49790;-71
2022/09/03 11:34:00;;;;;;;;;4.00;4.00;;;;;25.42;52.85;100889.22;5090703;27;49969;-71
2022/09/03 11:36:32;;;;;;;;;6.75;5.00;;;;;25.38;52.43;100882.19;5091945;27;49987;-70
2022/09/03 11:38:59;;;;;;;;;4.75;4.75;;;;;25.22;52.71;100851.50;5090547;27;49680;-69
2022/09/03 11:41:27;;;;;;;;;5.75;4.00;;;;;25.33;52.91;100873.47;5090670;27;50030;-69
2022/09/03 11:43:55;;;;;;;;;5.00;3.50;;;;;25.18;52.24;100861.47;5094841;27;49727;-69
2022/09/03 11:46:20;;;;;;;;;4.25;4.25;;;;;25.27;52.38;100889.81;5100308;27;49726;-70